Time;durP1;ratioP1;P1;durP2;ratioP2;P2;SDS_P1;SDS_P2;PMS_P1;PMS_P2;Temp;Humidity;BMP_temperature;BMP_pressure;BME280_temperature;BME280_humidity;BME280_pressure;Samples;Min_cycle;Max_cycle;Signal;HPM_P1;HPM_P2
2023/05/18 00:00:34;;;;;;;4.20;2.40;;;;;;;11.50;88.57;95491.91;106514;1277;24262;-61
2023/05/18 00:03:17;;;;;;;3.30;2.70;;;;;;;11.47;88.54;95493.36;106645;1259;25201;-61
2023/05/18 00:05:48;;;;;;;3.20;2.80;;;;;;;11.46;88.92;95496.20;106607;1277;25384;-61
2023/05/18 00:08:16;;;;;;;3.30;3.00;;;;;;;11.51;89.15;95496.45;106561;1277;22583;-61
2023/05/18 00:10:44;;;;;;;3.70;2.60;;;;;;;11.54;88.99;95497.61;106516;1277;25505;-61
2023/05/18 00:13:12;;;;;;;8.10;2.80;;;;;;;11.52;88.80;95498.20;106544;1277;24295;-61
2023/05/18 00:15:40;;;;;;;3.60;2.60;;;;;;;11.54;89.24;95500.80;106658;1277;25414;-61
2023/05/18 00:18:09;;;;;;;5.70;2.90;;;;;;;11.56;89.07;95501.27;106523;1276;22523;-61
2023/05/18 00:20:38;;;;;;;4.60;2.70;;;;;;;11.53;88.73;95502.94;106830;1276;25495;-61
2023/05/18 00:23:09;;;;;;;4.60;2.90;;;;;;;11.53;89.14;95507.52;106558;1276;24296;-61
2023/05/18 00:25:37;;;;;;;3.10;2.50;;;;;;;11.57;89.32;95508.13;106592;1276;22518;-61
2023/05/18 00:28:05;;;;;;;4.70;2.90;;;;;;;11.55;89.08;95502.88;106680;1276;25350;-61
2023/05/18 00:30:33;;;;;;;4.70;2.60;;;;;;;11.54;88.94;95508.54;106531;1276;22541;-61
2023/05/18 00:33:01;;;;;;;4.40;2.60;;;;;;;11.52;88.59;95506.31;106532;1276;25272;-61
2023/05/18 00:35:30;;;;;;;6.50;2.90;;;;;;;11.47;88.46;95508.55;106560;1276;22867;-61
2023/05/18 00:37:58;;;;;;;3.60;3.10;;;;;;;11.49;89.02;95512.17;106591;1276;25403;-61
2023/05/18 00:40:27;;;;;;;6.50;2.80;;;;;;;11.49;88.69;95515.70;106574;1276;22513;-61
2023/05/18 00:42:56;;;;;;;6.60;2.90;;;;;;;11.46;88.43;95510.84;106730;1276;24256;-61
2023/05/18 00:45:25;;;;;;;8.20;2.90;;;;;;;11.45;88.73;95511.94;106464;1276;22674;-61
2023/05/18 00:47:53;;;;;;;5.70;2.60;;;;;;;11.45;89.54;95511.04;106601;1276;25218;-61
2023/05/18 00:50:21;;;;;;;3.50;2.50;;;;;;;11.42;89.09;95511.11;106559;1276;22596;-61
2023/05/18 00:52:51;;;;;;;3.10;2.60;;;;;;;11.45;89.34;95506.98;106508;1276;24470;-61
2023/05/18 00:55:19;;;;;;;4.60;2.80;;;;;;;11.46;89.34;95507.84;106580;1276;22855;-61
2023/05/18 00:57:47;;;;;;;5.20;2.60;;;;;;;11.52;89.86;95508.58;106455;1276;25503;-62
2023/05/18 01:00:16;;;;;;;3.50;2.70;;;;;;;11.53;89.89;95509.98;106538;1276;22516;-61
2023/05/18 01:02:44;;;;;;;6.30;3.20;;;;;;;11.52;89.72;95516.17;106602;1276;24521;-61
2023/05/18 01:05:13;;;;;;;10.50;2.60;;;;;;;11.47;89.36;95519.45;106622;1276;25323;-61
2023/05/18 01:07:42;;;;;;;5.50;2.50;;;;;;;11.52;89.74;95517.23;106536;1276;24201;-61
2023/05/18 01:10:15;;;;;;;6.30;2.60;;;;;;;11.58;89.49;95521.13;106543;1276;22535;-61
2023/05/18 01:12:50;;;;;;;5.00;2.30;;;;;;;11.53;88.94;95522.84;106556;1276;22691;-61
2023/05/18 01:15:22;;;;;;;4.30;2.70;;;;;;;11.56;89.53;95528.77;106727;1253;24222;-61
2023/05/18 01:17:53;;;;;;;4.50;2.40;;;;;;;11.58;89.23;95525.17;106828;1276;24285;-61
2023/05/18 01:20:27;;;;;;;9.00;2.50;;;;;;;11.55;89.24;95524.20;106607;1276;24249;-61
2023/05/18 01:23:21;;;;;;;2.90;2.40;;;;;;;11.56;88.96;95527.16;106592;1276;22510;-61
2023/05/18 01:26:11;;;;;;;4.30;2.00;;;;;;;11.47;88.61;95529.31;106561;1276;25335;-61
2023/05/18 01:28:44;;;;;;;2.80;2.40;;;;;;;11.40;88.61;95540.23;106673;1276;24377;-61
2023/05/18 01:31:14;;;;;;;5.60;2.30;;;;;;;11.40;89.06;95538.10;106574;1276;24378;-61
2023/05/18 01:33:43;;;;;;;3.60;2.20;;;;;;;11.45;89.19;95534.10;106539;1276;24518;-61
2023/05/18 01:36:12;;;;;;;7.90;2.70;;;;;;;11.45;89.09;95537.45;106575;1276;22536;-61
2023/05/18 01:38:41;;;;;;;4.90;3.00;;;;;;;11.43;88.73;95539.61;106703;1276;24416;-61
2023/05/18 01:41:25;;;;;;;4.60;3.20;;;;;;;11.40;88.99;95541.45;106663;1276;22751;-61
2023/05/18 01:44:31;;;;;;;6.60;3.40;;;;;;;11.31;88.70;95539.71;106697;1276;25495;-61
2023/05/18 01:47:13;;;;;;;6.70;3.20;;;;;;;11.22;88.65;95539.39;106410;1276;22523;-61
2023/05/18 01:49:47;;;;;;;3.50;2.90;;;;;;;11.14;88.77;95541.14;106746;1276;24058;-61
2023/05/18 01:52:22;;;;;;;3.40;2.80;;;;;;;11.11;89.55;95546.48;106581;1276;25265;-61
2023/05/18 01:54:55;;;;;;;3.40;3.10;;;;;;;11.03;89.15;95543.84;106598;1276;24270;-61
2023/05/18 01:57:26;;;;;;;;;;;;;;;11.03;89.67;95543.48;106359;1276;25438;-61
2023/05/18 01:59:55;;;;;;;4.40;3.20;;;;;;;11.03;89.57;95541.73;106523;1276;24259;-61
2023/05/18 02:02:25;;;;;;;5.40;3.50;;;;;;;10.96;89.14;95543.46;106700;1276;24049;-61
2023/05/18 02:04:53;;;;;;;4.20;3.60;;;;;;;10.89;89.58;95548.70;106732;1276;25390;-62
2023/05/18 02:07:21;;;;;;;3.10;2.80;;;;;;;10.85;89.16;95548.45;106617;1276;22522;-61
2023/05/18 02:09:50;;;;;;;4.80;3.40;;;;;;;10.80;89.58;95553.83;106825;1276;24232;-61
2023/05/18 02:12:18;;;;;;;5.10;3.50;;;;;;;10.80;90.80;95559.80;106741;1276;22537;-61
2023/05/18 02:14:46;;;;;;;4.50;3.10;;;;;;;10.81;90.91;95566.31;106744;1276;22629;-61
2023/05/18 02:17:14;;;;;;;9.00;3.10;;;;;;;10.81;90.51;95563.48;106710;1276;22642;-61
2023/05/18 02:19:44;;;;;;;3.20;2.70;;;;;;;10.85;90.44;95567.80;106827;1276;22524;-61
2023/05/18 02:22:13;;;;;;;4.30;3.30;;;;;;;10.83;90.29;95572.41;106887;1276;22537;-61
2023/05/18 02:24:41;;;;;;;7.00;3.10;;;;;;;10.82;90.11;95570.67;106825;1276;25399;-61
2023/05/18 02:27:09;;;;;;;6.40;3.30;;;;;;;10.83;90.26;95572.77;106597;1268;22497;-61
2023/05/18 02:29:37;;;;;;;6.40;3.40;;;;;;;10.91;90.95;95569.26;106516;1276;24419;-61
2023/05/18 02:32:06;;;;;;;4.90;3.00;;;;;;;10.98;90.83;95571.23;106761;1276;22520;-61
2023/05/18 02:34:37;;;;;;;6.60;2.70;;;;;;;10.93;90.59;95578.36;106841;1276;25579;-61
2023/05/18 02:37:05;;;;;;;5.90;3.00;;;;;;;10.95;91.11;95577.61;106725;1276;25353;-62
2023/05/18 02:39:33;;;;;;;5.10;3.40;;;;;;;11.04;91.14;95580.61;106843;1276;24255;-61
2023/05/18 02:42:01;;;;;;;4.60;3.00;;;;;;;11.08;91.00;95576.84;106863;1276;22664;-61
2023/05/18 02:44:29;;;;;;;2.90;2.50;;;;;;;11.09;90.55;95583.67;106742;1276;25871;-62
2023/05/18 02:46:58;;;;;;;4.80;3.10;;;;;;;11.09;90.53;95583.85;106291;1276;22527;-61
2023/05/18 02:49:27;;;;;;;5.50;3.30;;;;;;;11.13;90.67;95586.06;106533;1266;23011;-61
2023/05/18 02:51:55;;;;;;;5.20;3.10;;;;;;;11.18;90.85;95580.84;106810;1276;22523;-61
2023/05/18 02:54:23;;;;;;;9.60;3.70;;;;;;;11.27;91.01;95584.16;106691;1276;23889;-61
2023/05/18 02:56:55;;;;;;;7.70;3.30;;;;;;;11.34;90.57;95590.54;106688;1276;22531;-61
2023/05/18 02:59:38;;;;;;;5.10;2.80;;;;;;;11.29;89.75;95588.70;106726;1276;25547;-61
2023/05/18 03:02:07;;;;;;;7.90;3.30;;;;;;;11.27;90.03;95590.16;106598;1276;22549;-61
2023/05/18 03:04:36;;;;;;;3.50;2.60;;;;;;;11.24;89.65;95595.88;106531;1276;22520;-61
2023/05/18 03:07:06;;;;;;;2.70;2.50;;;;;;;11.19;89.65;95604.08;106506;1263;23881;-61
2023/05/18 03:09:36;;;;;;;5.30;2.50;;;;;;;11.08;89.97;95606.59;106608;1276;25313;-61
2023/05/18 03:12:05;;;;;;;3.10;2.60;;;;;;;11.01;89.99;95609.35;106697;1276;25493;-61
2023/05/18 03:14:34;;;;;;;3.60;2.40;;;;;;;11.03;90.15;95608.96;106710;1276;24388;-61
2023/05/18 03:17:04;;;;;;;5.30;2.40;;;;;;;11.03;90.07;95610.54;106586;1276;22804;-61
2023/05/18 03:19:34;;;;;;;3.50;2.50;;;;;;;11.02;90.23;95611.62;106533;1276;24172;-61
2023/05/18 03:22:03;;;;;;;4.10;2.60;;;;;;;11.02;90.36;95612.15;106547;1276;25377;-61
2023/05/18 03:24:39;;;;;;;2.70;2.50;;;;;;;10.99;90.69;95619.08;106569;1276;26640;-61
2023/05/18 03:27:11;;;;;;;4.80;3.60;;;;;;;11.08;91.52;95625.23;106662;1276;23904;-61
2023/05/18 03:29:40;;;;;;;11.50;3.50;;;;;;;11.21;91.92;95620.57;106565;1276;25284;-61
2023/05/18 03:32:12;;;;;;;4.80;3.30;;;;;;;11.35;91.40;95623.63;106570;1276;22539;-61
2023/05/18 03:34:43;;;;;;;5.00;3.00;;;;;;;11.38;90.35;95627.27;106527;1276;23313;-61
2023/05/18 03:37:13;;;;;;;3.90;3.20;;;;;;;11.35;90.14;95629.09;106559;1276;22520;-61
2023/05/18 03:39:41;;;;;;;3.80;3.00;;;;;;;11.39;90.49;95630.41;106617;1276;25398;-61
2023/05/18 03:42:10;;;;;;;3.60;3.00;;;;;;;11.43;90.41;95631.03;106609;1276;22523;-61
2023/05/18 03:44:38;;;;;;;6.10;3.10;;;;;;;11.49;90.44;95632.50;106534;1276;25457;-61
2023/05/18 03:47:06;;;;;;;6.20;3.10;;;;;;;11.54;90.54;95637.31;106598;1276;25469;-61
2023/05/18 03:49:34;;;;;;;5.80;3.40;;;;;;;11.61;90.11;95641.56;106576;1265;22524;-61
2023/05/18 03:52:04;;;;;;;4.80;4.20;;;;;;;11.66;90.03;95643.05;106919;1276;22633;-61
2023/05/18 03:54:32;;;;;;;4.50;4.10;;;;;;;11.63;89.47;95644.69;106716;1276;24354;-61
2023/05/18 03:57:01;;;;;;;5.50;5.00;;;;;;;11.56;89.21;95648.02;106568;1276;22531;-61
2023/05/18 03:59:30;;;;;;;10.80;5.20;;;;;;;11.56;89.53;95647.83;106591;1276;22649;-61
2023/05/18 04:01:59;;;;;;;5.50;4.90;;;;;;;11.53;89.25;95646.84;106544;1276;26606;-61
2023/05/18 04:04:27;;;;;;;7.40;5.50;;;;;;;11.52;89.50;95645.30;106555;1276;27091;-61
2023/05/18 04:06:55;;;;;;;6.60;5.50;;;;;;;11.54;89.97;95639.95;106519;1276;25274;-61
2023/05/18 04:09:24;;;;;;;7.50;5.60;;;;;;;11.55;89.74;95641.36;106524;1276;22509;-61
2023/05/18 04:11:52;;;;;;;5.60;5.10;;;;;;;11.49;89.15;95645.01;106614;1276;22520;-61
2023/05/18 04:14:23;;;;;;;32.30;18.60;;;;;;;11.38;88.95;95649.45;106844;1276;22513;-61
2023/05/18 04:16:51;;;;;;;124.40;55.00;;;;;;;11.33;90.08;95652.90;106684;1276;22520;-61
2023/05/18 04:19:20;;;;;;;34.70;19.80;;;;;;;11.31;90.44;95662.99;106574;1276;25469;-61
2023/05/18 04:21:48;;;;;;;9.70;7.60;;;;;;;11.31;90.88;95663.52;106683;1276;22550;-61
2023/05/18 04:24:18;;;;;;;8.80;6.80;;;;;;;11.29;90.66;95671.48;106625;1276;26631;-61
2023/05/18 04:26:47;;;;;;;7.30;6.60;;;;;;;11.29;90.59;95673.23;106518;1276;25274;-62
2023/05/18 04:29:16;;;;;;;10.60;7.20;;;;;;;11.29;90.43;95681.17;106570;1276;22683;-61
2023/05/18 04:31:48;;;;;;;129.00;59.70;;;;;;;11.26;90.61;95683.85;106756;1276;24063;-61
2023/05/18 04:34:18;;;;;;;31.70;17.20;;;;;;;11.30;90.89;95683.80;106706;1276;25379;-61
2023/05/18 04:36:47;;;;;;;8.30;6.60;;;;;;;11.31;91.05;95689.76;106552;1276;23014;-61
2023/05/18 04:39:17;;;;;;;10.30;6.50;;;;;;;11.30;91.31;95686.08;106566;1276;22657;-61
2023/05/18 04:41:45;;;;;;;7.80;6.60;;;;;;;11.24;90.85;95691.11;106627;1276;24183;-61
2023/05/18 04:44:16;;;;;;;618.50;266.80;;;;;;;11.25;91.58;95690.74;106667;1276;24196;-66
2023/05/18 04:46:46;;;;;;;39.10;19.20;;;;;;;11.34;92.05;95694.09;106526;1276;25265;-61
2023/05/18 04:49:14;;;;;;;21.20;11.90;;;;;;;11.44;92.20;95698.83;106741;1276;22523;-61
2023/05/18 04:51:42;;;;;;;6.10;5.00;;;;;;;11.53;92.15;95697.77;106613;1276;22532;-61
2023/05/18 04:54:11;;;;;;;5.10;4.60;;;;;;;11.61;91.93;95702.52;106754;1276;25347;-61
2023/05/18 04:56:40;;;;;;;5.10;4.60;;;;;;;11.66;91.84;95704.17;106578;1276;22522;-63
2023/05/18 04:59:09;;;;;;;11.20;4.50;;;;;;;11.73;91.63;95708.08;106693;1265;22646;-61
2023/05/18 05:01:38;;;;;;;10.80;5.20;;;;;;;11.73;90.82;95706.88;106551;1276;22914;-64
2023/05/18 05:04:06;;;;;;;13.00;7.90;;;;;;;11.67;90.64;95710.15;106641;1270;22517;-62
2023/05/18 05:06:34;;;;;;;6.20;5.10;;;;;;;11.68;91.09;95716.30;106752;1275;22524;-63
2023/05/18 05:09:03;;;;;;;12.20;7.10;;;;;;;11.77;91.59;95716.45;106787;1275;22518;-65
2023/05/18 05:11:31;;;;;;;9.40;5.50;;;;;;;11.88;91.26;95719.42;106635;1275;22736;-61
2023/05/18 05:14:01;;;;;;;8.20;5.20;;;;;;;11.86;89.95;95719.11;106507;1275;22539;-63
2023/05/18 05:16:30;;;;;;;14.20;9.30;;;;;;;11.83;90.34;95713.87;106619;1275;24275;-63
2023/05/18 05:18:58;;;;;;;19.70;15.00;;;;;;;11.93;90.92;95720.02;106808;1275;22537;-62
2023/05/18 05:21:27;;;;;;;22.00;14.70;;;;;;;12.02;90.79;95726.36;106928;1275;22770;-61
2023/05/18 05:23:55;;;;;;;23.90;18.10;;;;;;;12.05;90.35;95725.23;106719;1275;25450;-64
2023/05/18 05:26:25;;;;;;;25.30;14.70;;;;;;;12.11;90.71;95728.79;106973;1275;22524;-62
2023/05/18 05:28:54;;;;;;;20.00;13.90;;;;;;;12.26;91.05;95732.16;106832;1275;22642;-61
2023/05/18 05:31:22;;;;;;;17.60;11.60;;;;;;;12.42;90.76;95733.03;106571;1275;25356;-60
2023/05/18 05:33:51;;;;;;;9.40;6.20;;;;;;;12.46;89.30;95737.70;106692;1275;24378;-62
2023/05/18 05:36:20;;;;;;;9.90;7.60;;;;;;;12.38;88.69;95743.00;106492;1275;25460;-63
2023/05/18 05:38:48;;;;;;;11.60;8.30;;;;;;;12.41;89.86;95741.69;106410;1275;22761;-65
2023/05/18 05:41:16;;;;;;;11.20;8.70;;;;;;;12.53;90.38;95748.30;106644;1275;25398;-64
2023/05/18 05:43:44;;;;;;;9.50;6.80;;;;;;;12.66;90.37;95745.87;106575;1275;23945;-63
2023/05/18 05:46:13;;;;;;;9.20;6.70;;;;;;;12.75;89.71;95741.93;106598;1275;22518;-63
2023/05/18 05:48:41;;;;;;;11.40;6.30;;;;;;;12.76;88.77;95741.55;106581;1275;22633;-63
2023/05/18 05:51:10;;;;;;;16.80;8.00;;;;;;;12.75;88.62;95740.34;106664;1270;24328;-63
2023/05/18 05:53:39;;;;;;;10.00;7.80;;;;;;;12.81;89.16;95746.39;106501;1275;24361;-62
2023/05/18 05:56:08;;;;;;;10.50;8.20;;;;;;;12.88;88.92;95749.20;106672;1275;22805;-64
2023/05/18 05:58:41;;;;;;;10.10;8.00;;;;;;;12.93;89.12;95750.48;106613;1275;22676;-65
2023/05/18 06:01:09;;;;;;;9.50;7.30;;;;;;;12.99;88.85;95750.88;106567;1275;22514;-63
2023/05/18 06:03:37;;;;;;;9.90;7.90;;;;;;;12.99;88.14;95750.33;106853;1275;22583;-63
2023/05/18 06:06:10;;;;;;;11.20;7.70;;;;;;;12.95;87.34;95749.73;106704;1275;22511;-65
2023/05/18 06:08:38;;;;;;;8.10;6.30;;;;;;;12.88;87.07;95747.09;106650;1270;22629;-61
2023/05/18 06:11:06;;;;;;;8.20;6.10;;;;;;;12.84;87.25;95751.25;106509;1275;22766;-62
2023/05/18 06:13:39;;;;;;;10.70;6.50;;;;;;;12.73;86.70;95762.80;106590;1275;24337;-61
2023/05/18 06:16:07;;;;;;;181.40;82.20;;;;;;;12.61;87.13;95765.05;106554;1275;22639;-62
2023/05/18 06:18:35;;;;;;;28.10;18.70;;;;;;;12.56;87.88;95767.64;106739;1275;24368;-62
2023/05/18 06:21:05;;;;;;;11.10;9.20;;;;;;;12.52;87.95;95763.86;106651;1275;22535;-60
2023/05/18 06:23:33;;;;;;;13.80;10.10;;;;;;;12.45;87.77;95769.30;106560;1275;25470;-60
2023/05/18 06:26:01;;;;;;;11.90;8.20;;;;;;;12.40;87.83;95770.65;106612;1275;22821;-58
2023/05/18 06:28:32;;;;;;;13.20;8.90;;;;;;;12.38;87.97;95775.29;106571;1275;22524;-61
2023/05/18 06:31:09;;;;;;;11.70;8.50;;;;;;;12.38;88.14;95770.68;106593;1275;23885;-61
2023/05/18 06:33:50;;;;;;;10.20;7.40;;;;;;;12.38;88.17;95770.70;106845;1275;22560;-62
2023/05/18 06:36:19;;;;;;;10.00;7.10;;;;;;;12.36;88.11;95771.45;106887;1275;22785;-62
2023/05/18 06:44:49;;;;;;;9.40;7.30;;;;;;;12.38;88.94;95780.39;103665;1313;544788;-60
2023/05/18 06:47:19;;;;;;;11.30;6.60;;;;;;;12.38;88.98;95782.34;106039;1289;25278;-61
2023/05/18 06:49:47;;;;;;;12.90;8.00;;;;;;;12.42;89.07;95782.61;105962;1289;24425;-61
2023/05/18 06:52:16;;;;;;;8.70;6.40;;;;;;;12.45;89.24;95785.20;105911;1289;24226;-60
2023/05/18 06:54:45;;;;;;;8.70;5.90;;;;;;;12.47;89.03;95790.26;105807;1289;22775;-60
2023/05/18 06:57:14;;;;;;;8.00;6.20;;;;;;;12.54;89.54;95792.41;105614;1289;676084;-65
2023/05/18 06:59:42;;;;;;;11.10;5.80;;;;;;;12.63;89.61;95793.77;105818;1286;22644;-61
2023/05/18 07:02:11;;;;;;;12.60;5.60;;;;;;;12.66;89.22;95797.41;105737;1279;22533;-61
2023/05/18 07:04:40;;;;;;;10.60;5.70;;;;;;;12.70;89.31;95795.17;105830;1285;22535;-63
2023/05/18 07:07:08;;;;;;;26.10;9.40;;;;;;;12.77;89.14;95795.91;106494;1274;22533;-61
2023/05/18 07:09:36;;;;;;;19.70;9.50;;;;;;;12.80;88.64;95796.52;106547;1270;22596;-62
2023/05/18 07:12:05;;;;;;;20.70;10.60;;;;;;;12.85;88.88;95798.89;106506;1254;26266;-63
2023/05/18 07:14:33;;;;;;;23.40;10.10;;;;;;;12.94;89.06;95802.21;106522;1273;24414;-62
2023/05/18 07:17:01;;;;;;;22.70;9.30;;;;;;;13.01;88.80;95794.08;106480;1271;25410;-62
2023/05/18 07:19:29;;;;;;;131.50;63.30;;;;;;;13.04;88.24;95792.24;106509;1273;25157;-66
2023/05/18 07:21:58;;;;;;;12.20;6.60;;;;;;;12.98;87.79;95797.50;106564;1270;22522;-63
2023/05/18 07:24:26;;;;;;;12.20;6.90;;;;;;;12.96;87.93;95804.09;106733;1270;22934;-63
2023/05/18 07:26:54;;;;;;;8.50;5.60;;;;;;;12.95;87.77;95802.52;106450;1272;22516;-61
2023/05/18 07:29:24;;;;;;;11.50;5.90;;;;;;;12.89;87.25;95808.15;106504;1272;22462;-63
2023/05/18 07:31:52;;;;;;;10.00;6.00;;;;;;;12.82;87.12;95812.91;106478;1270;24356;-62
2023/05/18 07:34:22;;;;;;;13.10;6.60;;;;;;;12.78;87.45;95817.06;106474;1273;22563;-62
2023/05/18 07:36:50;;;;;;;13.60;7.40;;;;;;;12.76;87.36;95816.77;106552;1269;24266;-62
2023/05/18 07:39:18;;;;;;;13.70;7.30;;;;;;;12.74;87.55;95819.09;106493;1269;25568;-61
2023/05/18 07:41:48;;;;;;;8.00;6.60;;;;;;;12.78;87.82;95822.35;106391;1274;25486;-63
2023/05/18 07:44:17;;;;;;;19.50;11.70;;;;;;;12.80;87.70;95822.66;106460;1269;24380;-63
2023/05/18 07:46:47;;;;;;;12.20;9.10;;;;;;;12.80;87.48;95823.38;106362;1270;22742;-63
2023/05/18 07:49:16;;;;;;;8.30;6.00;;;;;;;12.78;87.46;95825.72;106477;1270;22539;-63
2023/05/18 07:51:44;;;;;;;7.60;4.80;;;;;;;12.78;87.41;95826.77;106606;1270;24793;-62
2023/05/18 07:54:13;;;;;;;6.20;5.00;;;;;;;12.78;87.36;95827.82;106543;1270;22711;-62
2023/05/18 07:56:43;;;;;;;9.50;4.90;;;;;;;12.77;86.81;95835.09;106542;1270;22529;-63
2023/05/18 07:59:11;;;;;;;7.10;5.70;;;;;;;12.75;86.96;95837.77;106505;1274;22900;-62
2023/05/18 08:01:39;;;;;;;6.70;5.10;;;;;;;12.81;87.16;95840.64;106393;1273;24715;-61
2023/05/18 08:04:07;;;;;;;8.70;5.40;;;;;;;12.84;86.93;95841.83;106437;1273;22661;-63
2023/05/18 08:06:36;;;;;;;8.10;5.60;;;;;;;12.82;86.69;95844.16;106483;1272;25351;-62
2023/05/18 08:09:05;;;;;;;9.50;6.70;;;;;;;12.85;87.17;95848.84;107061;1275;22527;-65
2023/05/18 08:11:35;;;;;;;15.60;8.00;;;;;;;12.89;86.93;95847.87;106401;1270;24005;-66
2023/05/18 08:14:04;;;;;;;14.90;8.90;;;;;;;12.93;87.06;95851.48;106554;1270;22517;-66
2023/05/18 08:16:35;;;;;;;10.90;4.40;;;;;;;12.95;87.05;95852.30;106272;1269;22985;-62
2023/05/18 08:19:04;;;;;;;9.50;4.90;;;;;;;13.01;87.14;95853.23;106426;1270;22538;-64
2023/05/18 08:21:33;;;;;;;7.80;5.00;;;;;;;13.02;86.49;95852.34;106505;1269;25300;-62
2023/05/18 08:24:02;;;;;;;11.00;7.50;;;;;;;12.99;86.44;95853.10;106567;1269;23034;-65
2023/05/18 08:26:30;;;;;;;17.00;10.70;;;;;;;12.93;86.03;95850.95;107435;1275;24041;-65
2023/05/18 08:28:58;;;;;;;8.80;5.70;;;;;;;12.89;86.19;95851.39;106488;1270;22547;-65
2023/05/18 08:31:27;;;;;;;14.50;6.90;;;;;;;12.85;86.24;95852.03;106458;1276;24260;-65
2023/05/18 08:33:55;;;;;;;9.30;6.20;;;;;;;12.83;86.68;95852.59;106528;1269;22608;-65
2023/05/18 08:36:23;;;;;;;7.40;6.20;;;;;;;12.86;86.99;95857.47;106453;1266;22809;-65
2023/05/18 08:38:52;;;;;;;7.90;6.10;;;;;;;12.89;87.07;95859.87;106444;1269;25237;-65
2023/05/18 08:41:36;;;;;;;8.10;5.90;;;;;;;12.94;87.35;95866.83;106439;1269;22636;-66
2023/05/18 08:44:15;;;;;;;8.60;6.00;;;;;;;12.94;87.12;95865.76;106435;1275;25464;-64
2023/05/18 08:46:49;;;;;;;7.70;5.70;;;;;;;12.90;86.84;95870.27;106495;1275;25330;-66
2023/05/18 08:49:20;;;;;;;7.70;6.00;;;;;;;12.85;86.73;95874.79;106584;1270;24377;-66
2023/05/18 08:51:55;;;;;;;10.70;6.70;;;;;;;12.80;86.69;95875.64;106740;1269;22527;-66
2023/05/18 08:54:23;;;;;;;12.20;6.70;;;;;;;12.74;86.76;95884.05;106565;1273;25392;-63
2023/05/18 08:56:52;;;;;;;15.80;6.60;;;;;;;12.72;87.04;95881.80;106492;1276;22529;-64
2023/05/18 08:59:26;;;;;;;8.90;6.30;;;;;;;12.71;87.17;95880.41;106604;1276;25303;-68
2023/05/18 09:01:55;;;;;;;10.40;6.00;;;;;;;12.73;87.46;95885.12;106570;1276;24228;-64
2023/05/18 09:04:25;;;;;;;8.10;5.80;;;;;;;12.76;87.70;95882.95;106600;1276;25393;-63
2023/05/18 09:06:55;;;;;;;7.70;4.80;;;;;;;12.78;87.79;95877.95;106634;1276;22527;-63
2023/05/18 09:09:24;;;;;;;5.70;4.60;;;;;;;12.82;87.55;95867.98;106569;1276;22520;-63
2023/05/18 09:11:54;;;;;;;7.90;4.90;;;;;;;12.84;87.22;95860.87;106575;1276;22520;-63
2023/05/18 09:14:24;;;;;;;6.40;5.00;;;;;;;12.88;87.23;95854.06;106602;1276;22527;-63
2023/05/18 09:16:53;;;;;;;6.40;4.90;;;;;;;12.92;87.29;95849.73;106596;1276;25281;-63
2023/05/18 09:19:23;;;;;;;11.30;5.50;;;;;;;12.98;87.36;95845.37;106546;1254;25494;-64
2023/05/18 09:21:52;;;;;;;8.10;5.20;;;;;;;13.05;87.24;95845.02;106577;1276;22741;-63
2023/05/18 09:24:20;;;;;;;5.30;4.80;;;;;;;13.13;87.20;95839.88;106587;1276;22626;-63
2023/05/18 09:26:52;;;;;;;4.70;4.20;;;;;;;13.20;86.88;95835.83;106575;1276;25353;-63
2023/05/18 09:29:22;;;;;;;8.40;6.10;;;;;;;13.24;86.53;95834.30;106580;1276;22517;-63
2023/05/18 09:31:53;;;;;;;6.20;4.20;;;;;;;13.31;86.63;95836.11;106516;1276;22524;-63
2023/05/18 09:34:21;;;;;;;7.00;4.90;;;;;;;13.34;86.44;95840.11;106601;1276;23904;-63
2023/05/18 09:36:55;;;;;;;5.40;4.90;;;;;;;13.43;86.94;95842.53;106582;1276;22531;-63
2023/05/18 09:39:23;;;;;;;5.00;4.50;;;;;;;13.57;86.90;95844.09;106632;1276;22536;-62
2023/05/18 09:41:58;;;;;;;5.60;4.90;;;;;;;13.70;86.40;95843.39;106640;1276;24062;-62
2023/05/18 09:44:35;;;;;;;5.60;4.60;;;;;;;13.82;86.25;95842.19;106589;1276;22536;-62
2023/05/18 09:47:09;;;;;;;7.00;5.50;;;;;;;13.99;85.82;95843.51;106585;1276;25330;-62
2023/05/18 09:49:39;;;;;;;;;;;;;;;14.13;85.52;95844.51;106609;1276;22498;-62
2023/05/18 09:52:08;;;;;;;6.50;5.10;;;;;;;14.29;84.87;95847.24;106574;1276;22550;-63
2023/05/18 09:54:36;;;;;;;8.90;5.70;;;;;;;14.48;84.78;95848.61;106545;1276;22529;-62
2023/05/18 09:57:05;;;;;;;9.90;6.00;;;;;;;14.69;84.55;95851.73;106637;1264;24206;-62
2023/05/18 09:59:38;;;;;;;;;;;;;;;14.86;83.27;95853.89;106634;1276;22516;-62
2023/05/18 10:02:08;;;;;;;8.50;4.70;;;;;;;14.96;81.47;95854.80;106549;1276;24227;-62
2023/05/18 10:04:41;;;;;;;6.80;5.20;;;;;;;15.06;80.76;95852.15;106671;1276;22577;-63
2023/05/18 10:07:11;;;;;;;10.70;5.70;;;;;;;15.24;80.63;95853.54;106606;1276;22784;-62
2023/05/18 10:09:40;;;;;;;9.30;6.00;;;;;;;15.46;80.10;95852.48;106600;1276;22559;-62
2023/05/18 10:12:11;;;;;;;11.70;6.10;;;;;;;15.60;79.00;95850.39;106562;1276;22529;-63
2023/05/18 10:14:40;;;;;;;7.60;5.50;;;;;;;15.70;77.61;95854.70;106628;1276;24256;-62
2023/05/18 10:17:13;;;;;;;10.10;5.40;;;;;;;15.77;76.75;95854.45;106550;1272;22637;-63
2023/05/18 10:19:45;;;;;;;9.70;5.60;;;;;;;15.84;76.74;95855.45;106597;1276;23889;-63
2023/05/18 10:22:16;;;;;;;14.20;6.00;;;;;;;16.05;76.38;95863.23;106594;1270;25345;-62
2023/05/18 10:24:49;;;;;;;8.50;5.20;;;;;;;16.26;75.00;95868.31;106587;1276;24265;-63
2023/05/18 10:27:24;;;;;;;6.30;5.30;;;;;;;16.52;73.84;95865.95;106573;1276;25125;-63
2023/05/18 10:29:56;;;;;;;8.30;5.10;;;;;;;16.81;74.46;95861.48;106665;1276;22539;-63
2023/05/18 10:32:28;;;;;;;8.00;5.40;;;;;;;17.18;73.57;95858.77;106577;1276;22483;-63
2023/05/18 10:34:56;;;;;;;6.30;5.40;;;;;;;17.43;71.61;95853.69;106571;1276;24256;-63
2023/05/18 10:37:29;;;;;;;5.60;5.10;;;;;;;17.53;71.49;95853.07;106586;1276;22530;-63
2023/05/18 10:39:59;;;;;;;6.00;4.80;;;;;;;17.59;70.32;95851.05;106642;1276;25375;-63
2023/05/18 10:42:30;;;;;;;7.60;5.40;;;;;;;17.49;69.19;95853.80;106552;1276;22643;-63
2023/05/18 10:45:00;;;;;;;7.40;4.80;;;;;;;17.38;69.06;95855.51;106637;1276;25383;-63
2023/05/18 10:47:30;;;;;;;10.60;4.40;;;;;;;17.25;68.91;95859.91;106627;1276;25281;-63
2023/05/18 10:50:00;;;;;;;6.30;4.60;;;;;;;17.23;69.33;95858.23;106617;1276;22574;-63
2023/05/18 10:52:30;;;;;;;5.80;4.10;;;;;;;17.19;69.83;95860.16;106726;1276;25265;-63
2023/05/18 10:55:00;;;;;;;5.80;4.50;;;;;;;17.12;68.19;95854.60;106621;1276;24228;-63
2023/05/18 10:57:37;;;;;;;5.50;4.20;;;;;;;17.18;68.25;95850.96;106622;1276;25248;-63
2023/05/18 11:00:08;;;;;;;5.60;4.70;;;;;;;17.22;67.18;95848.85;106649;1276;22531;-63
2023/05/18 11:02:41;;;;;;;5.50;4.60;;;;;;;17.35;68.07;95847.25;106575;1276;22532;-63
2023/05/18 11:05:11;;;;;;;6.40;5.50;;;;;;;17.47;68.02;95851.91;106658;1276;24408;-63
2023/05/18 11:07:43;;;;;;;7.80;4.70;;;;;;;17.36;67.30;95848.48;106644;1275;24274;-62
2023/05/18 11:10:12;;;;;;;5.40;4.80;;;;;;;17.27;68.45;95849.70;106592;1276;25351;-63
2023/05/18 11:12:41;;;;;;;5.10;4.60;;;;;;;17.33;68.27;95839.34;106576;1276;22524;-62
2023/05/18 11:15:10;;;;;;;6.70;5.00;;;;;;;17.45;67.56;95840.77;106605;1276;22565;-63
2023/05/18 11:17:39;;;;;;;5.50;5.00;;;;;;;17.58;68.80;95843.45;106539;1276;25661;-63
2023/05/18 11:20:07;;;;;;;8.20;4.90;;;;;;;17.71;68.79;95837.54;106692;1276;22523;-63
2023/05/18 11:22:45;;;;;;;9.50;5.30;;;;;;;17.73;67.91;95834.63;106737;1276;22521;-63
2023/05/18 11:25:25;;;;;;;5.30;4.60;;;;;;;17.70;68.02;95835.13;106645;1276;23725;-63
2023/05/18 11:28:03;;;;;;;6.40;4.80;;;;;;;17.71;67.90;95836.13;106585;1276;24044;-63
2023/05/18 11:30:35;;;;;;;7.00;5.00;;;;;;;17.67;67.49;95840.41;106560;1276;22531;-63
2023/05/18 11:33:10;;;;;;;8.40;5.10;;;;;;;17.69;67.77;95836.56;106609;1276;24430;-62
2023/05/18 11:35:53;;;;;;;6.40;4.80;;;;;;;17.75;67.44;95833.65;106622;1276;22760;-63
2023/05/18 11:38:26;;;;;;;6.70;4.70;;;;;;;17.76;67.53;95835.59;106597;1276;22648;-63
2023/05/18 11:40:59;;;;;;;10.40;5.10;;;;;;;17.75;66.79;95839.52;106619;1276;22528;-63